Time;durP1;ratioP1;P1;durP2;ratioP2;P2;SDS_P1;SDS_P2;PMS_P1;PMS_P2;Temp;Humidity;BMP_temperature;BMP_pressure;BME280_temperature;BME280_humidity;BME280_pressure;Samples;Min_cycle;Max_cycle;Signal;HPM_P1;HPM_P2
2022/06/19 00:00:52;;;;;;;12.63;7.68;;;22.80;99.90;;;;;;5075093;28;20185;-66
2022/06/19 00:03:32;;;;;;;11.70;6.50;;;22.80;99.90;;;;;;5074780;28;20174;-67
2022/06/19 00:05:59;;;;;;;11.85;7.05;;;22.80;99.90;;;;;;5075010;28;20619;-66
2022/06/19 00:08:26;;;;;;;12.82;7.57;;;22.70;99.90;;;;;;5074652;28;20702;-67
2022/06/19 00:10:52;;;;;;;12.40;8.02;;;22.60;99.90;;;;;;5074689;28;20689;-66
2022/06/19 00:13:18;;;;;;;11.93;8.20;;;22.50;99.90;;;;;;5073244;28;20177;-66
2022/06/19 00:15:44;;;;;;;11.27;6.97;;;22.50;99.90;;;;;;5073406;28;20197;-66
2022/06/19 00:18:10;;;;;;;13.00;8.05;;;22.40;99.90;;;;;;5074422;28;20235;-66
2022/06/19 00:20:36;;;;;;;9.30;7.30;;;22.30;99.90;;;;;;5074423;28;20174;-67
2022/06/19 00:23:02;;;;;;;9.23;7.50;;;22.30;99.90;;;;;;5074675;28;20185;-67
2022/06/19 00:25:28;;;;;;;9.73;7.13;;;22.30;99.90;;;;;;5074322;28;20166;-66
2022/06/19 00:27:54;;;;;;;12.20;8.13;;;22.30;99.90;;;;;;5074583;28;20186;-67
2022/06/19 00:30:20;;;;;;;14.50;7.15;;;22.20;99.90;;;;;;5072148;28;20228;-66
2022/06/19 00:32:46;;;;;;;12.65;7.63;;;22.10;99.90;;;;;;5074090;28;20173;-68
2022/06/19 00:35:12;;;;;;;11.73;7.80;;;22.20;99.90;;;;;;5074139;28;20192;-67
2022/06/19 00:37:38;;;;;;;8.77;6.57;;;22.10;99.90;;;;;;5072951;28;20174;-66
2022/06/19 00:40:07;;;;;;;9.70;7.65;;;22.10;99.90;;;;;;5074164;28;20660;-66
2022/06/19 00:42:33;;;;;;;10.35;6.97;;;22.00;99.90;;;;;;5072839;28;20264;-67
2022/06/19 00:45:00;;;;;;;11.95;7.22;;;22.00;99.90;;;;;;5074564;28;20190;-66
2022/06/19 00:47:29;;;;;;;11.52;7.18;;;21.90;99.90;;;;;;5074043;28;20170;-67
2022/06/19 00:50:03;;;;;;;12.50;6.97;;;21.90;99.90;;;;;;5073754;28;20176;-67
2022/06/19 00:52:47;;;;;;;14.15;6.97;;;21.90;99.90;;;;;;5074275;28;20185;-66
2022/06/19 00:55:20;;;;;;;10.48;7.00;;;21.90;99.90;;;;;;5073269;28;20560;-66
2022/06/19 00:57:57;;;;;;;12.60;7.68;;;21.80;99.90;;;;;;5091720;28;20185;-66
2022/06/19 01:00:26;;;;;;;11.43;7.45;;;21.70;99.90;;;;;;5093030;28;20614;-66
2022/06/19 01:02:59;;;;;;;10.05;6.70;;;21.70;99.90;;;;;;5093961;28;20651;-67
2022/06/19 01:05:26;;;;;;;13.27;7.47;;;21.60;99.90;;;;;;5094489;28;20165;-67
2022/06/19 01:07:55;;;;;;;10.50;7.35;;;21.70;99.90;;;;;;5094058;28;20184;-66
2022/06/19 01:10:21;;;;;;;11.18;7.32;;;21.70;99.90;;;;;;5093862;28;20176;-67
2022/06/19 01:12:47;;;;;;;14.07;6.93;;;21.70;99.90;;;;;;5092703;28;20169;-66
2022/06/19 01:15:17;;;;;;;9.88;7.55;;;21.60;99.90;;;;;;5092443;28;20205;-66
2022/06/19 01:17:46;;;;;;;11.20;7.40;;;21.60;99.90;;;;;;5094029;28;20667;-66
2022/06/19 01:20:14;;;;;;;11.27;6.88;;;21.60;99.90;;;;;;5093825;28;20583;-66
2022/06/19 01:23:11;;;;;;;11.32;6.72;;;21.50;99.90;;;;;;5093975;28;20634;-67
2022/06/19 01:25:39;;;;;;;8.38;6.50;;;21.50;99.90;;;;;;5093841;28;20290;-66
2022/06/19 01:31:19;;;;;;;8.90;5.25;;;21.40;99.90;;;;;;5073673;28;20194;-67
2022/06/19 01:33:56;;;;;;;9.13;5.82;;;21.40;99.90;;;;;;5088833;28;20724;-67
2022/06/19 01:36:23;;;;;;;9.25;6.07;;;21.30;99.90;;;;;;5073530;28;20158;-66
2022/06/19 01:38:51;;;;;;;9.43;5.55;;;21.30;99.90;;;;;;5073525;28;20174;-66
2022/06/19 01:41:25;;;;;;;9.73;6.35;;;21.30;99.90;;;;;;5073653;28;20642;-66
2022/06/19 01:43:50;;;;;;;8.35;6.57;;;21.20;99.90;;;;;;5077610;28;20220;-66
2022/06/19 01:46:18;;;;;;;7.78;5.70;;;21.10;99.90;;;;;;5077524;28;20654;-67
2022/06/19 01:48:44;;;;;;;8.25;5.50;;;21.10;99.90;;;;;;5077423;28;20177;-66
2022/06/19 01:51:10;;;;;;;8.27;5.45;;;21.10;99.90;;;;;;5077864;28;20566;-66
2022/06/19 01:54:03;;;;;;;8.68;6.15;;;21.00;99.90;;;;;;5077795;28;20658;-66
2022/06/19 01:56:30;;;;;;;7.47;5.65;;;21.00;99.90;;;;;;5078170;28;20560;-66
2022/06/19 01:59:05;;;;;;;8.50;6.28;;;20.90;99.90;;;;;;5080321;28;20225;-67
2022/06/19 02:01:34;;;;;;;8.77;6.40;;;20.90;99.90;;;;;;5078297;28;20176;-66
2022/06/19 02:04:00;;;;;;;9.75;6.15;;;20.80;99.90;;;;;;5078171;28;20189;-67
2022/06/19 02:06:46;;;;;;;8.00;6.57;;;20.80;99.90;;;;;;5076440;28;20555;-66
2022/06/19 02:09:15;;;;;;;8.32;6.20;;;20.70;99.90;;;;;;5077661;28;20549;-66
2022/06/19 02:11:41;;;;;;;7.80;5.72;;;20.70;99.90;;;;;;5077691;28;20201;-67
2022/06/19 02:14:09;;;;;;;6.35;4.97;;;20.70;99.90;;;;;;5076017;28;20697;-67
2022/06/19 02:16:40;;;;;;;5.05;4.47;;;20.70;99.90;;;;;;5077715;28;20158;-66
2022/06/19 02:19:07;;;;;;;7.05;4.68;;;20.80;99.90;;;;;;5077260;28;20194;-67
2022/06/19 02:21:43;;;;;;;7.32;4.53;;;20.70;99.90;;;;;;5076150;28;20185;-66
2022/06/19 02:24:12;;;;;;;5.85;4.75;;;20.80;99.90;;;;;;5077550;28;20205;-66
2022/06/19 02:26:40;;;;;;;8.25;4.60;;;20.80;99.90;;;;;;5077178;28;20193;-67
2022/06/19 02:29:09;;;;;;;9.18;4.43;;;20.70;99.90;;;;;;5077237;28;20538;-67
2022/06/19 02:31:37;;;;;;;5.60;4.53;;;20.70;99.90;;;;;;5077286;28;20219;-67
2022/06/19 02:34:17;;;;;;;5.72;4.40;;;20.70;99.90;;;;;;5075425;28;20563;-67
2022/06/19 02:36:46;;;;;;;9.60;5.32;;;20.60;99.90;;;;;;5077061;28;20161;-67
2022/06/19 02:39:39;;;;;;;6.82;5.22;;;20.50;99.90;;;;;;5077009;28;20180;-66
2022/06/19 02:42:20;;;;;;;7.38;4.70;;;20.50;99.90;;;;;;5077594;28;20170;-66
2022/06/19 02:44:48;;;;;;;6.53;5.00;;;20.40;99.90;;;;;;5076737;28;20223;-66
2022/06/19 02:47:15;;;;;;;5.47;4.00;;;20.30;99.90;;;;;;5075362;28;20568;-66
2022/06/19 02:49:41;;;;;;;6.25;4.05;;;20.20;99.90;;;;;;5076423;28;20259;-67
2022/06/19 02:52:09;;;;;;;5.90;3.90;;;20.30;99.90;;;;;;5076533;28;20197;-67
2022/06/19 02:54:35;;;;;;;5.82;3.85;;;20.20;99.90;;;;;;5075392;28;20197;-66
2022/06/19 02:57:00;;;;;;;6.35;4.07;;;20.20;99.90;;;;;;5076591;28;20264;-66
2022/06/19 02:59:26;;;;;;;4.35;3.45;;;20.20;99.90;;;;;;5075078;28;20173;-67
2022/06/19 03:01:52;;;;;;;5.68;3.85;;;20.20;99.90;;;;;;5076524;28;20174;-66
2022/06/19 03:04:23;;;;;;;6.15;3.80;;;20.10;99.90;;;;;;5075913;28;20202;-66
2022/06/19 03:06:50;;;;;;;4.40;3.53;;;20.00;99.90;;;;;;5076384;28;20169;-66
2022/06/19 03:09:16;;;;;;;5.38;3.35;;;20.00;99.90;;;;;;5076081;28;20173;-66
2022/06/19 03:11:42;;;;;;;6.97;3.88;;;19.90;99.90;;;;;;5076026;28;20286;-66
2022/06/19 03:14:08;;;;;;;4.78;3.35;;;19.90;99.90;;;;;;5076053;28;20208;-66
2022/06/19 03:16:34;;;;;;;8.20;4.00;;;19.80;99.90;;;;;;5074814;28;20162;-66
2022/06/19 03:19:00;;;;;;;4.25;3.03;;;19.80;99.90;;;;;;5076162;28;20535;-66
2022/06/19 03:21:26;;;;;;;5.15;3.63;;;19.80;99.90;;;;;;5075984;28;20544;-66
2022/06/19 03:23:52;;;;;;;7.45;3.80;;;19.80;99.90;;;;;;5076041;28;20225;-66
2022/06/19 03:26:18;;;;;;;4.85;3.30;;;19.70;99.90;;;;;;5076173;28;20595;-67
2022/06/19 03:28:43;;;;;;;5.25;3.40;;;19.70;99.90;;;;;;5075868;28;20206;-66
2022/06/19 03:31:19;;;;;;;5.53;3.63;;;19.70;99.90;;;;;;5076350;28;20230;-66
2022/06/19 03:33:45;;;;;;;6.15;3.38;;;19.70;99.90;;;;;;5075750;28;20277;-66
2022/06/19 03:36:11;;;;;;;6.28;3.40;;;19.60;99.90;;;;;;5075694;28;20572;-66
2022/06/19 03:38:36;;;;;;;7.10;3.30;;;19.60;99.90;;;;;;5075904;28;20226;-66
2022/06/19 03:41:02;;;;;;;6.53;3.88;;;19.40;99.90;;;;;;5075622;28;20691;-66
2022/06/19 03:43:28;;;;;;;8.65;4.53;;;19.30;99.90;;;;;;5075381;28;20251;-66
2022/06/19 03:46:02;;;;;;;5.88;3.25;;;19.10;99.90;;;;;;5075444;28;20213;-66
2022/06/19 03:48:28;;;;;;;8.70;3.90;;;19.00;99.90;;;;;;5075113;28;20169;-66
2022/06/19 03:50:54;;;;;;;9.02;3.75;;;19.00;99.90;;;;;;5074031;28;20739;-66
2022/06/19 03:53:20;;;;;;;4.35;3.50;;;18.90;99.90;;;;;;5075606;28;20170;-66
2022/06/19 03:55:47;;;;;;;4.15;3.47;;;18.80;99.90;;;;;;5074061;28;20170;-66
2022/06/19 03:58:13;;;;;;;5.78;3.35;;;18.80;99.90;;;;;;5075293;28;20185;-66
2022/06/19 04:00:39;;;;;;;6.15;3.67;;;18.80;99.90;;;;;;5073964;28;20174;-66
2022/06/19 04:03:05;;;;;;;6.70;3.58;;;18.80;99.90;;;;;;5073845;28;20638;-66
2022/06/19 04:05:32;;;;;;;4.70;3.20;;;18.80;99.90;;;;;;5074939;28;20665;-66
2022/06/19 04:07:58;;;;;;;6.97;3.58;;;18.70;99.90;;;;;;5075890;28;20224;-66
2022/06/19 04:10:24;;;;;;;8.18;3.28;;;18.60;99.90;;;;;;5076776;28;20177;-66
2022/06/19 04:12:50;;;;;;;5.05;3.20;;;18.50;99.90;;;;;;5074827;28;20205;-66
2022/06/19 04:15:16;;;;;;;5.07;3.33;;;18.50;99.90;;;;;;5075458;28;20255;-66
2022/06/19 04:17:42;;;;;;;4.13;3.30;;;18.40;99.90;;;;;;5076002;28;20174;-66
2022/06/19 04:20:10;;;;;;;9.95;3.28;;;18.30;99.90;;;;;;5074705;28;20170;-66
2022/06/19 04:22:37;;;;;;;4.32;3.25;;;18.20;99.90;;;;;;5074990;28;20258;-66
2022/06/19 04:25:04;;;;;;;6.53;3.40;;;18.20;99.90;;;;;;5075085;28;20194;-66
2022/06/19 04:27:32;;;;;;;9.63;4.13;;;18.20;99.90;;;;;;5074725;28;20181;-65
2022/06/19 04:29:58;;;;;;;8.75;3.55;;;18.10;99.90;;;;;;5074856;28;20619;-66
2022/06/19 04:32:23;;;;;;;8.90;2.92;;;18.00;99.90;;;;;;5074876;28;20209;-66
2022/06/19 04:34:49;;;;;;;6.78;3.38;;;18.00;99.90;;;;;;5074679;28;20194;-66
2022/06/19 04:37:15;;;;;;;5.70;3.35;;;18.00;99.90;;;;;;5075151;28;20178;-66
2022/06/19 04:39:41;;;;;;;8.95;3.47;;;18.10;99.90;;;;;;5074563;28;20213;-67
2022/06/19 04:42:07;;;;;;;6.68;3.53;;;17.90;99.90;;;;;;5074409;28;20169;-66
2022/06/19 04:44:33;;;;;;;7.53;2.83;;;17.90;99.90;;;;;;5074256;28;20232;-66
2022/06/19 04:46:59;;;;;;;9.77;3.50;;;17.90;99.90;;;;;;5074351;28;20569;-66
2022/06/19 04:49:25;;;;;;;9.40;3.42;;;17.80;99.90;;;;;;5074363;28;20170;-66
2022/06/19 04:51:50;;;;;;;7.53;3.00;;;17.80;99.90;;;;;;5074242;28;20194;-66
2022/06/19 04:54:16;;;;;;;8.48;3.38;;;17.80;99.90;;;;;;5073987;28;20193;-66
2022/06/19 04:56:43;;;;;;;14.13;3.42;;;17.80;99.90;;;;;;5074200;28;20238;-66
2022/06/19 04:59:09;;;;;;;11.35;3.28;;;17.70;99.90;;;;;;5073963;28;20170;-67
2022/06/19 05:01:37;;;;;;;14.10;3.80;;;17.60;99.90;;;;;;5074213;28;20626;-66
2022/06/19 05:04:12;;;;;;;12.23;3.45;;;17.70;99.90;;;;;;5073827;28;20654;-66
2022/06/19 05:06:38;;;;;;;7.35;3.35;;;17.60;99.90;;;;;;5074158;28;20194;-66
2022/06/19 05:09:04;;;;;;;10.88;3.60;;;17.60;99.90;;;;;;5073993;28;20231;-66
2022/06/19 05:11:32;;;;;;;9.32;3.50;;;17.60;99.90;;;;;;5073852;28;20198;-66
2022/06/19 05:13:59;;;;;;;10.55;3.78;;;17.50;99.90;;;;;;5073895;28;20214;-66
2022/06/19 05:16:25;;;;;;;11.95;4.15;;;17.50;99.90;;;;;;5073599;28;20581;-67
2022/06/19 05:18:54;;;;;;;11.40;4.90;;;17.60;99.90;;;;;;5073537;28;20190;-67
2022/06/19 05:21:22;;;;;;;10.60;3.85;;;17.40;99.90;;;;;;5073996;28;20264;-66
2022/06/19 05:23:49;;;;;;;12.60;3.63;;;17.30;99.90;;;;;;5072326;28;20232;-67
2022/06/19 05:26:30;;;;;;;13.02;3.22;;;17.40;99.90;;;;;;5074221;28;20221;-66
2022/06/19 05:28:57;;;;;;;8.52;3.33;;;17.40;99.90;;;;;;5073947;28;20188;-67
2022/06/19 05:31:24;;;;;;;13.77;3.15;;;17.50;99.90;;;;;;5073646;28;20220;-75
2022/06/19 05:33:51;;;;;;;6.93;2.53;;;17.60;99.90;;;;;;5072787;28;20198;-68
2022/06/19 05:36:17;;;;;;;9.35;3.42;;;17.80;99.90;;;;;;5073927;28;20202;-68
2022/06/19 05:38:43;;;;;;;10.35;3.65;;;18.00;99.90;;;;;;5073634;28;20610;-69
2022/06/19 05:41:09;;;;;;;9.95;3.00;;;17.90;99.90;;;;;;5073372;28;20646;-68
2022/06/19 05:43:36;;;;;;;11.35;3.67;;;18.00;99.90;;;;;;5073236;28;20203;-69
2022/06/19 05:46:06;;;;;;;14.55;3.88;;;17.90;99.90;;;;;;5073208;28;20196;-68
2022/06/19 05:48:33;;;;;;;10.05;3.47;;;17.90;99.90;;;;;;5073068;28;20206;-68
2022/06/19 05:51:01;;;;;;;9.70;3.20;;;17.80;99.90;;;;;;5071504;28;20202;-68
2022/06/19 05:53:30;;;;;;;12.05;3.47;;;17.70;99.90;;;;;;5073168;28;20217;-68
2022/06/19 05:55:56;;;;;;;8.40;3.50;;;17.50;99.90;;;;;;5073155;28;20611;-68
2022/06/19 05:58:22;;;;;;;10.73;3.40;;;17.30;99.90;;;;;;5071859;28;20669;-69
2022/06/19 06:00:48;;;;;;;13.65;4.00;;;17.30;99.90;;;;;;5073071;28;20643;-68
2022/06/19 06:03:16;;;;;;;14.43;2.92;;;17.50;99.90;;;;;;5071700;28;20206;-69
2022/06/19 06:05:43;;;;;;;10.57;3.35;;;17.50;99.90;;;;;;5072840;28;20173;-68
2022/06/19 06:08:10;;;;;;;8.38;3.03;;;17.70;99.90;;;;;;5072917;28;20192;-69
2022/06/19 06:10:35;;;;;;;10.52;3.25;;;17.90;99.90;;;;;;5071656;28;20177;-68
2022/06/19 06:13:02;;;;;;;13.38;3.78;;;17.90;99.90;;;;;;5073153;28;20166;-68
2022/06/19 06:15:28;;;;;;;11.63;4.03;;;18.00;99.90;;;;;;5071558;28;20217;-68
2022/06/19 06:17:53;;;;;;;11.13;3.78;;;18.10;99.90;;;;;;5071859;28;20181;-68
2022/06/19 06:20:19;;;;;;;9.95;3.45;;;18.20;99.90;;;;;;5071411;28;20269;-69
2022/06/19 06:22:45;;;;;;;8.45;3.03;;;18.30;99.90;;;;;;5073616;28;20249;-68
2022/06/19 06:25:12;;;;;;;12.98;3.58;;;18.40;99.90;;;;;;5072740;28;20197;-67
2022/06/19 06:27:38;;;;;;;15.48;3.67;;;18.40;99.90;;;;;;5072831;28;20177;-67
2022/06/19 06:30:05;;;;;;;9.82;3.50;;;18.40;99.90;;;;;;5075356;28;20207;-67
2022/06/19 06:32:30;;;;;;;11.95;3.40;;;18.60;99.90;;;;;;5076364;28;20406;-67
2022/06/19 06:34:56;;;;;;;12.48;3.58;;;18.60;99.90;;;;;;5076054;28;20284;-68
2022/06/19 06:37:22;;;;;;;10.80;3.22;;;18.60;99.90;;;;;;5075034;28;20174;-69
2022/06/19 06:39:48;;;;;;;10.60;2.90;;;18.70;99.90;;;;;;5076398;28;20201;-69
2022/06/19 06:42:14;;;;;;;14.27;4.03;;;18.80;99.90;;;;;;5076530;28;20530;-69
2022/06/19 06:44:40;;;;;;;9.48;3.17;;;18.90;99.90;;;;;;5076178;28;20198;-66
2022/06/19 06:47:05;;;;;;;10.52;2.97;;;18.90;99.90;;;;;;5076400;28;20216;-69
2022/06/19 06:49:31;;;;;;;10.20;3.72;;;19.00;99.90;;;;;;5074551;28;20249;-69
2022/06/19 06:51:57;;;;;;;9.07;3.30;;;19.20;99.90;;;;;;5074690;28;20197;-68
2022/06/19 06:54:23;;;;;;;13.75;3.22;;;19.30;99.90;;;;;;5075941;28;20670;-69
2022/06/19 06:56:50;;;;;;;10.82;3.53;;;19.40;99.90;;;;;;5076147;28;20213;-69
2022/06/19 06:59:16;;;;;;;11.38;3.30;;;19.50;99.90;;;;;;5074815;28;20185;-69
2022/06/19 07:01:44;;;;;;;15.13;3.88;;;19.50;99.90;;;;;;5076152;28;20174;-68
2022/06/19 07:04:10;;;;;;;10.50;3.92;;;19.60;99.90;;;;;;5074433;28;20267;-66
2022/06/19 07:06:36;;;;;;;9.52;3.47;;;19.50;99.90;;;;;;5075630;28;20277;-65
2022/06/19 07:09:04;;;;;;;8.40;3.17;;;19.50;99.90;;;;;;5076299;28;20200;-65
2022/06/19 07:11:37;;;;;;;13.80;3.28;;;19.60;99.90;;;;;;5075622;28;20198;-74
2022/06/19 07:14:03;;;;;;;10.65;3.55;;;19.50;99.90;;;;;;5075525;28;20294;-72
2022/06/19 07:16:29;;;;;;;11.02;3.60;;;19.50;99.90;;;;;;5074579;28;20173;-68
2022/06/19 07:18:55;;;;;;;13.73;3.47;;;19.50;99.90;;;;;;5075632;28;20303;-68
2022/06/19 07:21:21;;;;;;;10.68;3.38;;;19.60;99.90;;;;;;5075258;28;20184;-68
2022/06/19 07:23:47;;;;;;;12.80;3.45;;;19.70;99.90;;;;;;5074162;28;20203;-68
2022/06/19 07:26:15;;;;;;;14.80;3.50;;;19.70;99.90;;;;;;5074258;28;20239;-68
2022/06/19 07:28:41;;;;;;;8.50;3.38;;;19.70;99.90;;;;;;5074169;28;20182;-69
2022/06/19 07:31:07;;;;;;;14.77;3.70;;;19.60;99.90;;;;;;5075239;28;20230;-68
2022/06/19 07:33:37;;;;;;;13.52;3.70;;;19.70;99.90;;;;;;5075384;28;20249;-69
2022/06/19 07:36:11;;;;;;;14.52;3.85;;;19.70;99.90;;;;;;5073760;28;20189;-68
2022/06/19 07:38:37;;;;;;;12.60;3.85;;;19.50;99.90;;;;;;5075240;28;20157;-65
2022/06/19 07:41:03;;;;;;;16.85;4.20;;;19.60;99.90;;;;;;5074687;28;20539;-68
2022/06/19 07:43:29;;;;;;;12.15;3.40;;;19.60;99.90;;;;;;5075221;28;20193;-68
2022/06/19 07:45:55;;;;;;;12.80;3.45;;;19.50;99.90;;;;;;5073831;28;20177;-69
2022/06/19 07:51:05;;;;;;;8.70;3.63;;;19.40;99.90;;;;;;5074889;28;20196;-68
2022/06/19 07:53:31;;;;;;;18.38;7.15;;;19.30;99.90;;;;;;5073610;28;20198;-68
2022/06/19 07:55:57;;;;;;;10.00;3.78;;;19.30;99.90;;;;;;5074929;28;20591;-68
2022/06/19 07:58:22;;;;;;;13.15;4.97;;;19.30;99.90;;;;;;5074460;28;20185;-68
2022/06/19 08:00:48;;;;;;;15.75;4.97;;;19.50;99.90;;;;;;5073972;28;20177;-67
2022/06/19 08:03:14;;;;;;;18.13;4.32;;;19.60;99.90;;;;;;5075051;28;20555;-67
2022/06/19 08:05:41;;;;;;;12.52;4.30;;;19.60;99.90;;;;;;5075026;28;20643;-67
2022/06/19 08:08:14;;;;;;;10.82;3.35;;;19.60;99.90;;;;;;5074810;28;20162;-67
2022/06/19 08:10:43;;;;;;;14.05;3.80;;;19.70;99.90;;;;;;5075098;28;20208;-67
2022/06/19 08:13:10;;;;;;;12.23;3.55;;;19.70;99.90;;;;;;5075336;28;20514;-70
2022/06/19 08:15:36;;;;;;;11.02;3.83;;;19.70;99.90;;;;;;5074549;28;20268;-69
2022/06/19 08:18:02;;;;;;;10.68;3.60;;;19.70;99.90;;;;;;5074522;28;20682;-70
2022/06/19 08:20:29;;;;;;;11.45;3.42;;;19.70;99.90;;;;;;5074222;28;20227;-70
2022/06/19 08:22:56;;;;;;;12.73;3.92;;;19.70;99.90;;;;;;5073160;28;20231;-69
2022/06/19 08:25:23;;;;;;;13.63;3.60;;;19.80;99.90;;;;;;5074517;28;20208;-65
2022/06/19 08:27:51;;;;;;;13.30;3.72;;;19.80;99.90;;;;;;5074384;28;20189;-65
2022/06/19 08:30:27;;;;;;;17.00;4.30;;;19.80;99.90;;;;;;5074268;28;20775;-65
2022/06/19 08:32:53;;;;;;;15.20;3.90;;;19.90;99.90;;;;;;5072916;28;20204;-65
2022/06/19 08:35:20;;;;;;;11.63;3.75;;;19.90;99.90;;;;;;5073972;28;20200;-65
2022/06/19 08:37:49;;;;;;;14.77;3.45;;;19.90;99.90;;;;;;5074010;28;20170;-65
2022/06/19 08:40:43;;;;;;;13.95;4.35;;;20.00;99.90;;;;;;5074098;28;20170;-65
2022/06/19 08:43:34;;;;;;;10.00;3.78;;;20.00;99.90;;;;;;5074658;28;20562;-66
2022/06/19 08:46:26;;;;;;;11.95;3.50;;;20.00;99.90;;;;;;5074431;28;20162;-65
2022/06/19 08:49:13;;;;;;;11.55;3.58;;;20.10;99.90;;;;;;5057709;28;20528;-66
2022/06/19 08:51:51;;;;;;;10.13;3.55;;;20.20;99.90;;;;;;5073111;28;20181;-66
2022/06/19 08:54:23;;;;;;;14.38;4.10;;;20.40;99.90;;;;;;5072606;28;20189;-66
2022/06/19 08:57:07;;;;;;;14.05;4.07;;;20.50;99.90;;;;;;5073827;28;20197;-66
2022/06/19 08:59:56;;;;;;;12.13;4.05;;;20.50;99.90;;;;;;5073893;28;20158;-66
2022/06/19 09:03:07;;;;;;;12.73;4.30;;;20.50;99.90;;;;;;5066998;28;20186;-66
2022/06/19 09:05:48;;;;;;;14.05;3.75;;;20.60;99.90;;;;;;5072301;28;20181;-66
2022/06/19 09:08:22;;;;;;;13.45;4.07;;;20.80;99.90;;;;;;5074335;28;20192;-66
2022/06/19 09:11:04;;;;;;;14.63;3.90;;;21.00;99.90;;;;;;5073738;28;20238;-65
2022/06/19 09:13:50;;;;;;;9.98;3.55;;;21.00;99.90;;;;;;5073748;28;20655;-65
2022/06/19 09:16:52;;;;;;;15.95;3.95;;;20.90;99.90;;;;;;5074053;28;20173;-65
2022/06/19 09:19:24;;;;;;;8.40;3.30;;;20.80;99.90;;;;;;5072421;28;20558;-65
2022/06/19 09:22:11;;;;;;;18.10;6.22;;;20.90;99.90;;;;;;5073410;28;20296;-65
2022/06/19 09:25:03;;;;;;;9.48;3.72;;;21.20;99.90;;;;;;5073310;28;20189;-66
2022/06/19 09:27:35;;;;;;;10.95;3.47;;;21.30;99.90;;;;;;5073474;28;20184;-65
2022/06/19 09:30:08;;;;;;;17.95;4.40;;;21.30;99.90;;;;;;5073933;28;20172;-65
2022/06/19 09:32:48;;;;;;;16.83;5.05;;;21.40;99.90;;;;;;5073929;28;20192;-67
2022/06/19 09:35:24;;;;;;;14.25;5.05;;;21.60;99.90;;;;;;5073264;28;20678;-66
2022/06/19 09:37:55;;;;;;;14.60;4.05;;;21.90;99.90;;;;;;5072242;28;20269;-66
2022/06/19 09:40:28;;;;;;;14.35;3.83;;;22.00;99.90;;;;;;5071845;28;20173;-66
2022/06/19 09:43:00;;;;;;;13.88;5.00;;;22.40;99.90;;;;;;5072502;28;20182;-67
2022/06/19 09:45:28;;;;;;;11.65;5.15;;;22.50;99.90;;;;;;5074527;28;20542;-67
2022/06/19 09:48:21;;;;;;;16.70;5.35;;;22.60;99.90;;;;;;5073112;28;20238;-67
2022/06/19 09:50:53;;;;;;;11.75;3.10;;;22.70;99.90;;;;;;5073217;28;20162;-67
2022/06/19 09:53:39;;;;;;;15.90;5.90;;;22.80;99.90;;;;;;5073180;28;20708;-67
2022/06/19 09:56:16;;;;;;;9.52;3.85;;;22.60;99.90;;;;;;5069377;28;20756;-68
2022/06/19 09:59:05;;;;;;;11.27;3.17;;;22.50;99.90;;;;;;5071838;28;20273;-68
2022/06/19 10:01:31;;;;;;;12.27;3.40;;;22.70;99.90;;;;;;5070071;28;20719;-67
2022/06/19 10:04:21;;;;;;;10.02;3.50;;;22.70;99.90;;;;;;5075751;28;20201;-68
2022/06/19 10:06:54;;;;;;;10.63;3.92;;;22.80;99.90;;;;;;5076859;28;20241;-68
2022/06/19 10:09:47;;;;;;;13.50;4.32;;;22.90;99.90;;;;;;5077386;28;20241;-67
2022/06/19 10:12:34;;;;;;;7.93;2.90;;;22.80;99.90;;;;;;5077017;28;20667;-67
2022/06/19 10:15:04;;;;;;;12.43;3.35;;;22.70;99.90;;;;;;5075482;28;20240;-67
2022/06/19 10:17:55;;;;;;;8.65;2.90;;;22.70;99.90;;;;;;5075470;28;20522;-67
2022/06/19 10:20:36;;;;;;;12.80;3.42;;;22.80;99.90;;;;;;5077584;28;20208;-67
2022/06/19 10:23:29;;;;;;;10.57;3.17;;;22.80;99.90;;;;;;5076991;28;20158;-67
2022/06/19 10:26:27;;;;;;;12.45;2.97;;;22.90;99.90;;;;;;5075514;28;20184;-67
2022/06/19 10:29:26;;;;;;;11.20;3.22;;;23.10;99.90;;;;;;5076855;28;20162;-66
2022/06/19 10:32:08;;;;;;;10.60;3.10;;;23.30;99.90;;;;;;5076694;28;20272;-67
2022/06/19 10:34:51;;;;;;;11.77;4.80;;;23.40;99.90;;;;;;5075350;28;20207;-67
2022/06/19 10:37:47;;;;;;;11.90;3.72;;;23.70;99.90;;;;;;5077070;28;20619;-67
2022/06/19 10:40:27;;;;;;;10.68;3.95;;;23.70;99.90;;;;;;5077275;28;20181;-66
2022/06/19 10:43:33;;;;;;;12.43;4.13;;;23.90;99.90;;;;;;5076652;28;20502;-66
2022/06/19 10:46:06;;;;;;;10.63;3.80;;;23.80;99.90;;;;;;5076339;28;20193;-66
2022/06/19 10:48:57;;;;;;;8.93;3.45;;;23.60;99.90;;;;;;5076832;28;20158;-66
2022/06/19 10:51:40;;;;;;;9.77;3.58;;;23.50;99.90;;;;;;5074632;28;20193;-67
2022/06/19 10:54:09;;;;;;;8.20;3.38;;;23.20;99.90;;;;;;5076623;28;20198;-66
2022/06/19 10:56:51;;;;;;;12.30;3.80;;;22.90;99.90;;;;;;5074940;28;20185;-69
2022/06/19 10:59:17;;;;;;;11.35;3.83;;;22.70;99.90;;;;;;5076300;28;20165;-65
2022/06/19 11:04:39;;;;;;;13.02;4.07;;;22.50;99.90;;;;;;5077088;28;20247;-67
2022/06/19 11:07:16;;;;;;;10.15;4.00;;;22.60;99.90;;;;;;5075041;28;20619;-68
2022/06/19 11:09:49;;;;;;;9.82;3.80;;;22.50;99.90;;;;;;5076135;28;20174;-66
2022/06/19 11:12:36;;;;;;;9.90;3.03;;;22.70;99.90;;;;;;5078771;28;20279;-67
2022/06/19 11:15:07;;;;;;;9.65;4.43;;;23.10;99.90;;;;;;5075665;28;20201;-67
2022/06/19 11:17:41;;;;;;;11.80;3.80;;;23.40;99.90;;;;;;5075431;28;20531;-67
2022/06/19 11:20:30;;;;;;;9.75;3.42;;;23.60;99.90;;;;;;5076316;28;20181;-67
2022/06/19 11:23:43;;;;;;;9.68;3.22;;;23.80;99.90;;;;;;5076487;28;20508;-66
2022/06/19 11:26:10;;;;;;;11.30;3.72;;;24.00;99.90;;;;;;5063259;28;20209;-71
2022/06/19 11:28:44;;;;;;;11.45;3.55;;;24.20;99.90;;;;;;5075694;28;20174;-71
2022/06/19 11:31:23;;;;;;;11.25;3.58;;;24.00;99.90;;;;;;5074626;28;20204;-70
2022/06/19 11:33:54;;;;;;;10.88;3.40;;;23.90;99.90;;;;;;5075467;28;20190;-71
2022/06/19 11:36:33;;;;;;;13.05;3.38;;;24.00;99.90;;;;;;5074275;28;20177;-71
2022/06/19 11:39:01;;;;;;;13.05;3.60;;;24.30;99.90;;;;;;5076170;28;20572;-69
2022/06/19 11:41:32;;;;;;;9.35;3.38;;;24.60;99.90;;;;;;5074232;28;20212;-69
2022/06/19 11:44:06;;;;;;;14.07;3.72;;;25.10;99.90;;;;;;5075653;28;20547;-69
2022/06/19 11:46:50;;;;;;;14.38;4.57;;;25.60;99.90;;;;;;5075387;28;20166;-69
2022/06/19 11:49:32;;;;;;;11.40;3.40;;;26.10;99.90;;;;;;5075076;28;20668;-69
2022/06/19 11:52:04;;;;;;;12.63;4.03;;;26.00;99.90;;;;;;5073882;28;20205;-70
2022/06/19 11:54:35;;;;;;;11.55;3.85;;;26.30;99.90;;;;;;5073853;28;20232;-70
2022/06/19 11:57:01;;;;;;;13.15;4.00;;;26.50;99.90;;;;;;5073817;28;20182;-70
2022/06/19 11:59:44;;;;;;;11.00;3.65;;;26.50;99.90;;;;;;5075213;28;20194;-70
2022/06/19 12:02:27;;;;;;;8.98;3.42;;;26.60;99.90;;;;;;5075519;28;20642;-69
2022/06/19 12:04:59;;;;;;;10.90;3.45;;;26.50;99.90;;;;;;5074837;28;20236;-69
2022/06/19 12:07:29;;;;;;;11.45;3.90;;;26.20;99.90;;;;;;5075365;28;20249;-70
2022/06/19 12:10:21;;;;;;;12.48;4.05;;;25.60;99.90;;;;;;5075086;28;20268;-71
2022/06/19 12:13:20;;;;;;;13.93;4.35;;;25.10;99.90;;;;;;5075052;28;20593;-70
2022/06/19 12:16:02;;;;;;;12.90;3.90;;;24.80;99.90;;;;;;5073202;28;20197;-70
2022/06/19 12:18:30;;;;;;;13.75;4.13;;;24.50;99.90;;;;;;5073412;28;20161;-70
2022/06/19 12:21:03;;;;;;;12.60;5.07;;;24.30;99.90;;;;;;5074372;28;20173;-70
2022/06/19 12:23:44;;;;;;;13.30;3.67;;;24.10;99.90;;;;;;5073396;28;20194;-70
2022/06/19 12:26:18;;;;;;;9.30;3.50;;;24.10;99.90;;;;;;5074644;28;20178;-68
2022/06/19 12:28:53;;;;;;;14.85;4.13;;;24.60;99.90;;;;;;5074911;28;20158;-68
2022/06/19 12:31:31;;;;;;;14.52;4.35;;;24.90;99.90;;;;;;5074795;28;20220;-68
2022/06/19 12:34:01;;;;;;;15.80;3.83;;;25.00;99.90;;;;;;5074287;28;20204;-68
2022/06/19 12:36:30;;;;;;;14.70;4.90;;;24.90;99.90;;;;;;5074199;28;20170;-68
2022/06/19 12:38:56;;;;;;;13.48;4.28;;;24.90;99.90;;;;;;5073033;28;20252;-68
2022/06/19 12:41:43;;;;;;;11.85;3.53;;;25.00;99.90;;;;;;5072881;28;20229;-68
2022/06/19 12:44:39;;;;;;;8.13;3.45;;;25.20;99.90;;;;;;5072820;28;20574;-68
2022/06/19 12:47:05;;;;;;;9.73;3.30;;;25.40;99.90;;;;;;5074063;28;20186;-68
2022/06/19 12:50:06;;;;;;;11.05;3.80;;;25.80;99.90;;;;;;5075031;28;20178;-67
2022/06/19 12:53:05;;;;;;;13.32;3.80;;;25.80;99.90;;;;;;5072705;28;20216;-67
2022/06/19 12:55:52;;;;;;;7.50;2.95;;;25.80;99.90;;;;;;5074570;28;20158;-67
2022/06/19 12:58:55;;;;;;;13.93;4.07;;;26.30;99.90;;;;;;5074186;28;20154;-68
2022/06/19 13:01:30;;;;;;;13.95;4.00;;;26.60;99.90;;;;;;5072348;28;20173;-68
2022/06/19 13:04:14;;;;;;;9.77;3.35;;;26.70;99.90;;;;;;5073664;28;20197;-66
2022/06/19 13:07:14;;;;;;;11.63;3.70;;;26.60;99.90;;;;;;5073724;28;20567;-68
2022/06/19 13:09:46;;;;;;;11.75;3.00;;;26.80;99.90;;;;;;5066744;28;20720;-67
2022/06/19 13:12:37;;;;;;;12.88;3.42;;;26.90;99.90;;;;;;5072229;28;20297;-67
2022/06/19 13:15:05;;;;;;;10.73;4.05;;;26.90;99.90;;;;;;5074297;28;20773;-68